createdAt,value
2022-08-12T00:02:04.157Z,12.53
2022-08-12T00:04:55.162Z,12.50
2022-08-12T00:07:44.387Z,12.49
2022-08-12T00:10:33.004Z,12.46
2022-08-12T00:13:21.350Z,12.43
2022-08-12T00:16:09.955Z,12.43
2022-08-12T00:18:59.050Z,12.46
2022-08-12T00:21:48.337Z,12.45
2022-08-12T00:24:41.482Z,12.44
2022-08-12T00:27:44.224Z,12.40
2022-08-12T00:30:34.049Z,12.32
2022-08-12T00:33:23.264Z,12.30
2022-08-12T00:36:35.310Z,12.31
2022-08-12T00:39:24.524Z,12.29
2022-08-12T00:42:12.029Z,12.30
2022-08-12T00:44:48.239Z,12.25
2022-08-12T00:47:25.296Z,12.18
2022-08-12T00:49:58.165Z,12.14
2022-08-12T00:52:29.198Z,12.17
2022-08-12T00:55:02.061Z,12.18
2022-08-12T00:57:36.787Z,12.18
2022-08-12T01:00:12.604Z,12.18
2022-08-12T01:02:47.906Z,12.18
2022-08-12T01:05:39.622Z,12.13
2022-08-12T01:08:28.994Z,12.12
2022-08-12T01:11:17.806Z,12.11
2022-08-12T01:13:51.030Z,12.10
2022-08-12T01:16:24.200Z,12.08
2022-08-12T01:18:57.542Z,12.04
2022-08-12T01:21:57.864Z,12.00
2022-08-12T01:24:57.989Z,11.99
2022-08-12T01:27:31.208Z,11.99
2022-08-12T01:30:04.382Z,12.04
2022-08-12T01:32:38.373Z,12.05
2022-08-12T01:35:14.690Z,12.07
2022-08-12T01:37:53.296Z,12.06
2022-08-12T01:40:36.991Z,12.08
2022-08-12T01:43:11.454Z,12.07
2022-08-12T01:46:22.704Z,12.06
2022-08-12T01:49:04.863Z,12.05
2022-08-12T01:52:20.496Z,12.03
2022-08-12T01:54:38.738Z,11.99
2022-08-12T01:57:59.399Z,11.94
2022-08-12T02:00:13.824Z,11.89
2022-08-12T02:02:51.417Z,11.82
2022-08-12T02:05:57.751Z,11.77
2022-08-12T02:08:57.361Z,11.72
2022-08-12T02:11:31.400Z,11.68
2022-08-12T02:14:29.226Z,11.65
2022-08-12T02:17:55.901Z,11.61
2022-08-12T02:20:21.945Z,11.57
2022-08-12T02:22:54.813Z,11.54
2022-08-12T02:25:33.444Z,11.51
2022-08-12T02:28:07.845Z,11.49
2022-08-12T02:30:42.339Z,11.43
2022-08-12T02:33:14.341Z,11.42
2022-08-12T02:35:46.094Z,11.38
2022-08-12T02:38:17.593Z,11.33
2022-08-12T02:40:53.525Z,11.27
2022-08-12T02:43:34.993Z,11.21
2022-08-12T02:46:13.419Z,11.12
2022-08-12T02:48:51.626Z,11.03
2022-08-12T02:51:27.179Z,10.97
2022-08-12T02:54:04.825Z,10.97
2022-08-12T02:56:40.651Z,10.95
2022-08-12T02:59:16.887Z,10.92
2022-08-12T03:01:53.481Z,10.89
2022-08-12T03:04:32.128Z,10.81
2022-08-12T03:07:14.913Z,10.76
2022-08-12T03:10:05.434Z,10.67
2022-08-12T03:12:48.982Z,10.55
2022-08-12T03:15:24.776Z,10.47
2022-08-12T03:18:23.612Z,10.47
2022-08-12T03:20:54.603Z,10.50
2022-08-12T03:23:28.911Z,10.51
2022-08-12T03:26:03.742Z,10.54
2022-08-12T03:28:52.039Z,10.55
2022-08-12T03:31:26.063Z,10.55
2022-08-12T03:34:03.314Z,10.54
2022-08-12T03:36:36.347Z,10.53
2022-08-12T03:39:36.717Z,10.53
2022-08-12T03:42:28.468Z,10.55
2022-08-12T03:45:44.498Z,10.54
2022-08-12T03:48:41.905Z,10.55
2022-08-12T03:51:31.177Z,10.56
2022-08-12T03:54:20.226Z,10.57
2022-08-12T03:57:08.755Z,10.58
2022-08-12T03:59:57.353Z,10.57
2022-08-12T04:02:29.002Z,10.59
2022-08-12T04:05:00.355Z,10.60
2022-08-12T04:07:32.553Z,10.64
2022-08-12T04:10:04.788Z,10.69
2022-08-12T04:12:53.437Z,10.74
2022-08-12T04:15:29.060Z,10.81
2022-08-12T04:18:07.682Z,10.84
2022-08-12T04:20:40.558Z,10.88
2022-08-12T04:23:16.640Z,10.91
2022-08-12T04:25:48.007Z,10.96
2022-08-12T04:28:25.938Z,11.01
2022-08-12T04:30:58.134Z,11.08
2022-08-12T04:33:30.176Z,11.17
2022-08-12T04:36:00.874Z,11.26
2022-08-12T04:38:31.519Z,11.34
2022-08-12T04:41:03.510Z,11.43
2022-08-12T04:44:00.493Z,11.54
2022-08-12T04:46:30.599Z,11.70
2022-08-12T04:49:05.530Z,11.93
2022-08-12T04:51:37.032Z,12.14
2022-08-12T04:54:08.371Z,12.39
2022-08-12T04:56:40.523Z,13.03
2022-08-12T04:59:12.104Z,13.75
2022-08-12T05:01:43.427Z,14.29
2022-08-12T05:04:16.257Z,14.57
2022-08-12T05:06:47.875Z,14.85
2022-08-12T05:09:19.133Z,15.09
2022-08-12T05:11:54.145Z,15.30
2022-08-12T05:14:25.870Z,15.47
2022-08-12T05:16:57.124Z,15.63
2022-08-12T05:19:30.395Z,15.80
2022-08-12T05:22:01.716Z,15.92
2022-08-12T05:24:32.435Z,16.04
2022-08-12T05:27:03.521Z,16.14
2022-08-12T05:30:05.427Z,16.24
2022-08-12T05:32:26.247Z,16.35
2022-08-12T05:34:57.395Z,16.45
2022-08-12T05:37:28.550Z,16.53
2022-08-12T05:39:59.912Z,16.61
2022-08-12T05:42:34.291Z,16.69
2022-08-12T05:45:06.406Z,16.79
2022-08-12T05:47:53.153Z,16.88
2022-08-12T05:50:26.044Z,16.94
2022-08-12T05:52:57.058Z,17.02
2022-08-12T05:55:31.224Z,17.10
2022-08-12T05:58:03.371Z,17.19
2022-08-12T06:00:35.988Z,17.27
2022-08-12T06:03:08.469Z,17.32
2022-08-12T06:05:51.854Z,17.37
2022-08-12T06:08:27.536Z,17.43
2022-08-12T06:10:58.503Z,17.50
2022-08-12T06:13:52.751Z,17.57
2022-08-12T06:16:22.991Z,17.67
2022-08-12T06:18:54.635Z,17.72
2022-08-12T06:21:25.810Z,17.78
2022-08-12T06:23:57.508Z,17.86
2022-08-12T06:26:28.594Z,17.96
2022-08-12T06:29:00.816Z,18.05
2022-08-12T06:31:32.219Z,18.13
2022-08-12T06:35:27.205Z,18.19
2022-08-12T06:36:56.027Z,18.18
2022-08-12T06:39:27.141Z,18.23
2022-08-12T06:42:33.128Z,18.28
2022-08-12T06:45:07.307Z,18.40
2022-08-12T06:47:40.721Z,18.51
2022-08-12T06:50:15.940Z,18.58
2022-08-12T06:52:47.369Z,18.65
2022-08-12T06:55:20.602Z,18.74
2022-08-12T06:58:05.342Z,18.84
2022-08-12T07:00:39.524Z,18.92
2022-08-12T07:03:22.902Z,19.01
2022-08-12T07:05:54.947Z,19.11
2022-08-12T07:08:29.137Z,19.17
2022-08-12T07:11:03.965Z,19.16
2022-08-12T07:14:11.794Z,19.20
2022-08-12T07:16:51.425Z,19.24
2022-08-12T07:19:22.782Z,19.32
2022-08-12T07:21:59.899Z,19.38
2022-08-12T07:24:34.329Z,19.44
2022-08-12T07:27:05.514Z,19.48
2022-08-12T07:30:04.403Z,19.53
2022-08-12T07:32:29.439Z,19.60
2022-08-12T07:35:00.797Z,19.68
2022-08-12T07:37:35.082Z,19.74
2022-08-12T07:40:07.136Z,19.80
2022-08-12T07:42:38.069Z,19.87
2022-08-12T07:45:10.296Z,19.93
2022-08-12T07:47:43.357Z,19.95
2022-08-12T07:50:23.415Z,20.00
2022-08-12T07:52:54.986Z,20.01
2022-08-12T07:55:25.977Z,20.03
2022-08-12T07:57:59.579Z,20.03
2022-08-12T08:00:34.363Z,20.07
2022-08-12T08:03:05.849Z,20.13
2022-08-12T08:05:46.624Z,20.14
2022-08-12T08:08:19.718Z,20.11
2022-08-12T08:10:51.897Z,20.14
2022-08-12T08:13:22.746Z,20.20
2022-08-12T08:16:03.574Z,20.28
2022-08-12T08:18:35.068Z,20.40
2022-08-12T08:21:06.718Z,20.47
2022-08-12T08:24:02.009Z,20.52
2022-08-12T08:26:36.438Z,20.56
2022-08-12T08:29:08.960Z,20.56
2022-08-12T08:31:45.442Z,20.59
2022-08-12T08:34:27.510Z,20.57
2022-08-12T08:37:10.515Z,20.60
2022-08-12T08:39:41.954Z,20.66
2022-08-12T08:42:30.385Z,20.73
2022-08-12T08:45:01.394Z,20.80
2022-08-12T08:47:32.467Z,20.83
2022-08-12T08:50:04.181Z,20.88
2022-08-12T08:52:40.249Z,20.92
2022-08-12T08:55:14.020Z,20.94
2022-08-12T08:57:49.430Z,20.95
2022-08-12T09:00:21.801Z,21.00
2022-08-12T09:02:58.726Z,21.01
2022-08-12T09:06:01.892Z,21.07
2022-08-12T09:14:29.495Z,21.17
2022-08-12T09:17:00.523Z,21.14
2022-08-12T09:19:31.659Z,21.16
2022-08-12T09:22:04.862Z,21.09
2022-08-12T09:24:36.322Z,21.12
2022-08-12T09:27:08.266Z,21.19
2022-08-12T09:30:08.733Z,21.33
2022-08-12T09:33:04.679Z,21.46
2022-08-12T09:35:31.435Z,21.63
2022-08-12T09:38:03.376Z,21.78
2022-08-12T09:40:57.313Z,21.82
2022-08-12T09:44:01.272Z,21.76
2022-08-12T09:46:35.971Z,21.69
2022-08-12T09:49:13.589Z,21.70
2022-08-12T09:51:49.020Z,21.79
2022-08-12T09:54:33.054Z,21.87
2022-08-12T09:58:44.565Z,21.92
2022-08-12T10:00:17.898Z,21.87
2022-08-12T10:03:06.325Z,21.81
2022-08-12T10:06:26.755Z,21.74
2022-08-12T10:08:37.440Z,21.73
2022-08-12T10:11:26.984Z,21.73
2022-08-12T10:13:57.879Z,21.76
2022-08-12T10:16:35.361Z,21.80
2022-08-12T10:19:16.953Z,21.80
2022-08-12T10:21:56.870Z,21.82
2022-08-12T10:24:28.295Z,21.93
2022-08-12T10:27:16.990Z,22.04
2022-08-12T10:30:03.243Z,22.15
2022-08-12T10:32:44.312Z,22.26
2022-08-12T10:35:18.718Z,22.31
2022-08-12T10:38:34.469Z,22.38
2022-08-12T10:40:55.622Z,22.42
2022-08-12T10:43:55.795Z,22.46
2022-08-12T10:46:31.272Z,22.50
2022-08-12T10:49:06.374Z,22.53
2022-08-12T10:52:32.521Z,22.54
2022-08-12T10:54:49.348Z,22.52
2022-08-12T10:58:14.200Z,22.56
2022-08-12T11:00:34.057Z,22.66
2022-08-12T11:04:35.767Z,22.73
2022-08-12T11:07:08.363Z,22.82
2022-08-12T11:08:50.750Z,22.92
2022-08-12T11:12:34.875Z,22.96
2022-08-12T11:14:34.048Z,22.92
2022-08-12T11:17:51.946Z,22.84
2022-08-12T11:19:58.198Z,22.83
2022-08-12T11:22:32.886Z,22.91
2022-08-12T11:25:10.256Z,22.98
2022-08-12T11:27:42.656Z,23.09
2022-08-12T11:30:30.932Z,23.22
2022-08-12T11:33:02.915Z,23.35
2022-08-12T11:35:43.743Z,23.25
2022-08-12T11:38:14.878Z,23.09
2022-08-12T11:40:51.338Z,23.15
2022-08-12T11:43:22.239Z,23.25
2022-08-12T11:45:56.653Z,23.27
2022-08-12T11:48:28.007Z,23.23
2022-08-12T11:51:19.686Z,23.16
2022-08-12T11:53:57.457Z,23.06
2022-08-12T11:56:38.873Z,22.95
2022-08-12T12:02:04.938Z,22.79
2022-08-12T12:04:36.805Z,22.77
2022-08-12T12:07:11.537Z,22.79
2022-08-12T12:09:52.858Z,22.83
2022-08-12T12:12:25.605Z,22.92
2022-08-12T12:14:58.634Z,23.01
2022-08-12T12:17:37.991Z,22.98
2022-08-12T12:20:12.946Z,22.97
2022-08-12T12:22:45.353Z,23.00
2022-08-12T12:25:16.306Z,23.10
2022-08-12T12:28:06.311Z,23.23
2022-08-12T12:30:39.149Z,23.37
2022-08-12T12:33:25.688Z,23.51
2022-08-12T12:36:16.672Z,23.66
2022-08-12T12:38:47.699Z,23.66
2022-08-12T12:41:18.785Z,23.56
2022-08-12T12:43:56.369Z,23.55
2022-08-12T12:46:34.539Z,23.56
2022-08-12T12:49:06.902Z,23.63
2022-08-12T12:51:48.629Z,23.70
2022-08-12T12:54:24.436Z,23.66
2022-08-12T12:57:00.172Z,23.67
2022-08-12T12:59:56.478Z,23.66
2022-08-12T13:02:31.735Z,23.68
2022-08-12T13:05:02.819Z,23.67
2022-08-12T13:07:54.491Z,23.64
2022-08-12T13:10:36.483Z,23.62
2022-08-12T13:14:08.995Z,23.60
2022-08-12T13:16:01.592Z,23.53
2022-08-12T13:18:37.423Z,23.51
2022-08-12T13:21:15.793Z,23.59
2022-08-12T13:24:09.591Z,23.76
2022-08-12T13:26:42.493Z,23.88
2022-08-12T13:29:14.354Z,24.02
2022-08-12T13:32:30.865Z,24.13
2022-08-12T13:34:38.096Z,24.16
2022-08-12T13:37:09.803Z,24.13
2022-08-12T13:39:41.335Z,24.17
2022-08-12T13:42:14.674Z,24.27
2022-08-12T13:44:46.466Z,24.26
2022-08-12T13:47:19.436Z,24.16
2022-08-12T13:49:55.511Z,24.14
2022-08-12T13:52:27.020Z,24.21
2022-08-12T13:54:58.129Z,24.29
2022-08-12T13:57:46.848Z,24.39
2022-08-12T14:00:18.803Z,24.50
2022-08-12T14:02:53.101Z,24.55
2022-08-12T14:05:31.287Z,24.61
2022-08-12T14:08:12.001Z,24.68
2022-08-12T14:10:50.854Z,24.70
2022-08-12T14:14:05.797Z,24.76
2022-08-12T14:16:37.737Z,24.79
2022-08-12T14:19:21.886Z,24.78
2022-08-12T14:21:59.320Z,24.79
2022-08-12T14:24:40.553Z,24.76
2022-08-12T14:27:13.462Z,24.62
2022-08-12T14:30:05.739Z,24.56
2022-08-12T14:32:39.109Z,24.51
2022-08-12T14:35:11.158Z,24.79
2022-08-12T14:37:56.540Z,25.29
2022-08-12T14:40:31.323Z,25.79
2022-08-12T14:43:06.318Z,26.16
2022-08-12T14:45:47.047Z,26.48
2022-08-12T14:48:24.387Z,26.74
2022-08-12T14:52:39.016Z,26.89
2022-08-12T14:55:24.623Z,27.05
2022-08-12T14:59:57.476Z,27.30
2022-08-12T15:02:29.854Z,27.26
2022-08-12T15:05:03.463Z,27.34
2022-08-12T15:07:50.304Z,27.45
2022-08-12T15:10:25.329Z,27.54
2022-08-12T15:13:31.081Z,27.50
2022-08-12T15:16:07.042Z,27.67
2022-08-12T15:18:55.411Z,27.70
2022-08-12T15:22:37.199Z,27.65
2022-08-12T15:24:20.479Z,27.70
2022-08-12T15:26:52.092Z,27.68
2022-08-12T15:29:23.126Z,27.70
2022-08-12T15:32:00.795Z,27.30
2022-08-12T15:34:35.778Z,27.11
2022-08-12T15:37:09.318Z,27.00
2022-08-12T15:39:41.099Z,27.10
2022-08-12T15:42:36.145Z,27.22
2022-08-12T15:45:23.428Z,27.34
2022-08-12T15:48:16.385Z,27.46
2022-08-12T15:50:53.073Z,27.57
2022-08-12T15:53:42.287Z,27.69
2022-08-12T15:56:16.976Z,27.77
2022-08-12T15:58:55.244Z,27.92
2022-08-12T16:01:35.440Z,28.04
2022-08-12T16:04:13.057Z,27.91
2022-08-12T16:07:05.495Z,27.79
2022-08-12T16:10:05.052Z,27.78
2022-08-12T16:12:32.804Z,27.70
2022-08-12T16:15:04.118Z,27.37
2022-08-12T16:18:14.877Z,27.35
2022-08-12T16:20:33.743Z,27.28
2022-08-12T16:23:26.939Z,27.33
2022-08-12T16:26:14.389Z,27.38
2022-08-12T16:28:48.229Z,27.34
2022-08-12T16:31:23.495Z,27.36
2022-08-12T16:33:56.818Z,27.38
2022-08-12T16:36:32.586Z,27.36
2022-08-12T16:39:03.611Z,27.27
2022-08-12T16:41:39.589Z,27.10
2022-08-12T16:44:11.787Z,27.12
2022-08-12T16:46:57.593Z,27.07
2022-08-12T16:49:41.691Z,26.97
2022-08-12T16:52:17.198Z,26.93
2022-08-12T16:54:50.279Z,26.97
2022-08-12T16:57:32.451Z,27.11
2022-08-12T17:00:11.518Z,27.20
2022-08-12T17:02:44.616Z,27.13
2022-08-12T17:05:31.248Z,27.06
2022-08-12T17:08:03.586Z,27.13
2022-08-12T17:10:37.197Z,27.23
2022-08-12T17:13:10.689Z,27.26
2022-08-12T17:15:57.471Z,27.27
2022-08-12T17:18:43.598Z,27.29
2022-08-12T17:21:19.819Z,27.18
2022-08-12T17:23:54.870Z,26.98
2022-08-12T17:26:30.872Z,26.86
2022-08-12T17:29:01.137Z,26.70
2022-08-12T17:32:00.299Z,26.55
2022-08-12T17:34:48.468Z,26.39
2022-08-12T17:37:21.697Z,26.27
2022-08-12T17:40:12.180Z,26.22
2022-08-12T17:42:50.092Z,26.14
2022-08-12T17:45:24.474Z,26.02
2022-08-12T17:48:01.467Z,25.90
2022-08-12T17:50:50.429Z,25.86
2022-08-12T17:54:05.882Z,25.78
2022-08-12T17:56:31.759Z,25.72
2022-08-12T17:59:13.074Z,25.55
2022-08-12T18:01:53.745Z,25.27
2022-08-12T18:04:35.448Z,25.00
2022-08-12T18:07:08.620Z,24.79
2022-08-12T18:09:41.054Z,24.55
2022-08-12T18:12:40.636Z,24.34
2022-08-12T18:15:27.014Z,24.09
2022-08-12T18:18:16.627Z,23.84
2022-08-12T18:20:48.918Z,23.56
2022-08-12T18:23:23.757Z,23.32
2022-08-12T18:26:17.567Z,23.07
2022-08-12T18:28:50.358Z,22.77
2022-08-12T18:31:43.969Z,22.53
2022-08-12T18:34:21.926Z,22.26
2022-08-12T18:37:31.062Z,22.01
2022-08-12T18:40:33.070Z,21.66
2022-08-12T18:43:04.463Z,21.38
2022-08-12T18:45:47.391Z,21.17
2022-08-12T18:48:28.256Z,20.94
2022-08-12T18:51:09.627Z,20.75
2022-08-12T18:54:07.433Z,20.53
2022-08-12T18:56:42.909Z,20.29
2022-08-12T19:00:00.042Z,20.09
2022-08-12T19:02:21.841Z,19.90
2022-08-12T19:04:57.501Z,19.75
2022-08-12T19:07:29.811Z,19.59
2022-08-12T19:10:23.119Z,19.44
2022-08-12T19:13:24.032Z,19.28
2022-08-12T19:16:01.319Z,19.12
2022-08-12T19:18:36.823Z,19.00
2022-08-12T19:21:11.941Z,18.89
2022-08-12T19:24:07.579Z,18.78
2022-08-12T19:26:42.495Z,18.66
2022-08-12T19:29:16.849Z,18.53
2022-08-12T19:31:58.301Z,18.44
2022-08-12T19:38:02.787Z,18.18
2022-08-12T19:40:31.749Z,18.04
2022-08-12T19:43:17.272Z,17.93
2022-08-12T19:45:56.650Z,17.85
2022-08-12T19:48:32.852Z,17.76
2022-08-12T19:51:08.658Z,17.68
2022-08-12T19:53:57.363Z,17.59
2022-08-12T19:56:32.454Z,17.46
2022-08-12T19:59:22.173Z,17.39
2022-08-12T20:02:01.397Z,17.27
2022-08-12T20:04:37.713Z,17.17
2022-08-12T20:07:23.006Z,17.09
2022-08-12T20:09:55.554Z,17.01
2022-08-12T20:12:48.773Z,16.93
2022-08-12T20:15:26.378Z,16.82
2022-08-12T20:18:43.685Z,16.73
2022-08-12T20:21:14.923Z,16.64
2022-08-12T20:23:59.780Z,16.56
2022-08-12T20:26:31.933Z,16.47
2022-08-12T20:29:04.323Z,16.40
2022-08-12T20:31:37.544Z,16.30
2022-08-12T20:34:08.674Z,16.21
2022-08-12T20:36:44.628Z,16.10
2022-08-12T20:39:52.815Z,16.03
2022-08-12T20:42:10.036Z,15.98
2022-08-12T20:44:42.518Z,15.91
2022-08-12T20:47:19.590Z,15.85
2022-08-12T20:49:55.560Z,15.81
2022-08-12T20:52:45.296Z,15.77
2022-08-12T20:55:19.468Z,15.71
2022-08-12T20:58:01.748Z,15.67
2022-08-12T21:00:34.196Z,15.61
2022-08-12T21:03:36.359Z,15.55
2022-08-12T21:06:41.102Z,15.49
2022-08-12T21:09:12.084Z,15.43
2022-08-12T21:11:43.512Z,15.38
2022-08-12T21:14:17.132Z,15.34
2022-08-12T21:17:08.504Z,15.29
2022-08-12T21:19:51.930Z,15.23
2022-08-12T21:22:33.268Z,15.17
2022-08-12T21:25:14.464Z,15.10
2022-08-12T21:27:57.851Z,15.02
2022-08-12T21:30:37.231Z,14.99
2022-08-12T21:33:10.506Z,14.95
2022-08-12T21:35:41.520Z,14.93
2022-08-12T21:38:12.351Z,14.89
2022-08-12T21:40:51.591Z,14.83
2022-08-12T21:43:24.015Z,14.80
2022-08-12T21:46:01.087Z,14.74
2022-08-12T21:48:32.809Z,14.69
2022-08-12T21:51:03.747Z,14.65
2022-08-12T21:54:07.994Z,14.60
2022-08-12T21:56:41.055Z,14.56
2022-08-12T21:59:14.846Z,14.52
2022-08-12T22:01:48.746Z,14.50
2022-08-12T22:04:38.499Z,14.47
2022-08-12T22:07:09.872Z,14.41
2022-08-12T22:09:43.242Z,14.38
2022-08-12T22:12:41.003Z,14.33
2022-08-12T22:15:21.858Z,14.30
2022-08-12T22:17:55.399Z,14.25
2022-08-12T22:20:29.558Z,14.23
2022-08-12T22:23:04.198Z,14.18
2022-08-12T22:25:40.156Z,14.15
2022-08-12T22:28:29.000Z,14.11
2022-08-12T22:31:15.067Z,14.06
2022-08-12T22:33:54.456Z,14.02
2022-08-12T22:36:30.982Z,13.97
2022-08-12T22:39:04.486Z,13.90
2022-08-12T22:41:57.714Z,13.86
2022-08-12T22:44:54.707Z,13.83
2022-08-12T22:47:55.619Z,13.78
2022-08-12T22:50:29.598Z,13.76
2022-08-12T22:53:16.139Z,13.74
2022-08-12T22:56:00.100Z,13.72
2022-08-12T22:58:40.769Z,13.71
2022-08-12T23:01:21.187Z,13.71
2022-08-12T23:03:54.003Z,13.71
2022-08-12T23:06:29.055Z,13.69
2022-08-12T23:08:59.995Z,13.68
2022-08-12T23:11:36.245Z,13.66
2022-08-12T23:14:13.005Z,13.64
2022-08-12T23:16:47.375Z,13.60
2022-08-12T23:19:23.372Z,13.59
2022-08-12T23:22:03.837Z,13.60
2022-08-12T23:24:38.762Z,13.60
2022-08-12T23:27:50.229Z,13.58
2022-08-12T23:30:24.958Z,13.54
2022-08-12T23:33:02.731Z,13.45
2022-08-12T23:36:02.981Z,13.30
2022-08-12T23:38:35.604Z,13.21
2022-08-12T23:41:12.512Z,13.17
2022-08-12T23:43:49.989Z,13.18
2022-08-12T23:46:25.794Z,13.20
2022-08-12T23:49:00.953Z,13.23
2022-08-12T23:51:35.020Z,13.25
2022-08-12T23:54:10.154Z,13.25
2022-08-12T23:56:49.019Z,13.26
2022-08-12T23:59:22.915Z,13.27
